sensor_id;sensor_type;location;lat;lon;timestamp;temperature;humidity
19654;DHT22;9975;48.046;7.804;2023-03-18T01:56:49;11.80;44.90
19654;DHT22;9975;48.046;7.804;2023-03-18T01:59:17;11.90;45.40
19654;DHT22;9975;48.046;7.804;2023-03-18T02:01:50;11.90;45.30
19654;DHT22;9975;48.046;7.804;2023-03-18T02:04:18;11.90;45.20
19654;DHT22;9975;48.046;7.804;2023-03-18T02:06:45;11.90;45.70
19654;DHT22;9975;48.046;7.804;2023-03-18T02:09:11;12.00;44.60
19654;DHT22;9975;48.046;7.804;2023-03-18T02:11:40;12.00;45.20
19654;DHT22;9975;48.046;7.804;2023-03-18T02:14:10;11.90;45.10
19654;DHT22;9975;48.046;7.804;2023-03-18T02:22:17;11.90;45.00
19654;DHT22;9975;48.046;7.804;2023-03-18T02:27:25;12.00;44.20
19654;DHT22;9975;48.046;7.804;2023-03-18T02:29:56;12.00;44.20
19654;DHT22;9975;48.046;7.804;2023-03-18T02:32:27;11.90;43.80
19654;DHT22;9975;48.046;7.804;2023-03-18T02:34:55;12.00;44.40
19654;DHT22;9975;48.046;7.804;2023-03-18T02:37:21;12.00;43.70
19654;DHT22;9975;48.046;7.804;2023-03-18T02:39:47;12.00;44.20
19654;DHT22;9975;48.046;7.804;2023-03-18T02:42:13;12.00;44.40
19654;DHT22;9975;48.046;7.804;2023-03-18T02:44:42;11.90;43.80
19654;DHT22;9975;48.046;7.804;2023-03-18T02:47:11;12.00;43.70
19654;DHT22;9975;48.046;7.804;2023-03-18T02:49:38;11.90;43.30
19654;DHT22;9975;48.046;7.804;2023-03-18T02:52:04;11.90;43.80
19654;DHT22;9975;48.046;7.804;2023-03-18T02:54:30;11.90;43.10
19654;DHT22;9975;48.046;7.804;2023-03-18T02:56:56;11.90;43.10
19654;DHT22;9975;48.046;7.804;2023-03-18T02:59:23;11.90;43.70
19654;DHT22;9975;48.046;7.804;2023-03-18T03:01:50;11.90;43.50
19654;DHT22;9975;48.046;7.804;2023-03-18T03:04:18;11.90;43.00
19654;DHT22;9975;48.046;7.804;2023-03-18T03:06:44;11.90;43.50
19654;DHT22;9975;48.046;7.804;2023-03-18T03:09:12;11.90;43.40
19654;DHT22;9975;48.046;7.804;2023-03-18T03:11:39;11.80;43.40
19654;DHT22;9975;48.046;7.804;2023-03-18T03:14:05;11.80;43.30
19654;DHT22;9975;48.046;7.804;2023-03-18T03:16:31;11.80;42.70
19654;DHT22;9975;48.046;7.804;2023-03-18T03:18:57;11.80;42.80
19654;DHT22;9975;48.046;7.804;2023-03-18T03:21:23;11.70;43.30
19654;DHT22;9975;48.046;7.804;2023-03-18T03:23:50;11.70;42.50
19654;DHT22;9975;48.046;7.804;2023-03-18T03:26:16;11.70;43.10
19654;DHT22;9975;48.046;7.804;2023-03-18T03:28:42;11.70;42.70
19654;DHT22;9975;48.046;7.804;2023-03-18T03:31:08;11.70;42.60
19654;DHT22;9975;48.046;7.804;2023-03-18T03:33:40;11.60;42.30
19654;DHT22;9975;48.046;7.804;2023-03-18T03:36:11;11.70;42.90
19654;DHT22;9975;48.046;7.804;2023-03-18T03:38:37;11.60;42.40
19654;DHT22;9975;48.046;7.804;2023-03-18T03:41:03;11.60;42.30
19654;DHT22;9975;48.046;7.804;2023-03-18T03:43:30;11.60;42.80
19654;DHT22;9975;48.046;7.804;2023-03-18T03:45:57;11.60;42.80
19654;DHT22;9975;48.046;7.804;2023-03-18T03:48:22;11.50;42.50
19654;DHT22;9975;48.046;7.804;2023-03-18T03:50:49;11.50;42.70
19654;DHT22;9975;48.046;7.804;2023-03-18T03:53:15;11.50;43.20
19654;DHT22;9975;48.046;7.804;2023-03-18T03:55:41;11.50;43.20
19654;DHT22;9975;48.046;7.804;2023-03-18T03:58:07;11.50;43.20
19654;DHT22;9975;48.046;7.804;2023-03-18T04:00:34;11.50;42.30
19654;DHT22;9975;48.046;7.804;2023-03-18T04:02:59;11.50;42.80
19654;DHT22;9975;48.046;7.804;2023-03-18T04:05:25;11.40;43.30
19654;DHT22;9975;48.046;7.804;2023-03-18T04:07:52;11.50;42.60
19654;DHT22;9975;48.046;7.804;2023-03-18T04:10:19;11.40;42.00
19654;DHT22;9975;48.046;7.804;2023-03-18T04:12:46;11.40;42.50
19654;DHT22;9975;48.046;7.804;2023-03-18T04:15:13;11.40;42.50
19654;DHT22;9975;48.046;7.804;2023-03-18T04:17:40;11.30;42.50
19654;DHT22;9975;48.046;7.804;2023-03-18T04:20:06;11.30;42.60
19654;DHT22;9975;48.046;7.804;2023-03-18T04:22:32;11.30;42.30
19654;DHT22;9975;48.046;7.804;2023-03-18T04:24:58;11.30;42.40
19654;DHT22;9975;48.046;7.804;2023-03-18T04:27:24;11.20;42.20
19654;DHT22;9975;48.046;7.804;2023-03-18T04:29:51;11.30;41.90
19654;DHT22;9975;48.046;7.804;2023-03-18T04:32:16;11.10;41.90
19654;DHT22;9975;48.046;7.804;2023-03-18T04:34:42;11.20;42.40
19654;DHT22;9975;48.046;7.804;2023-03-18T04:37:09;11.10;42.20
19654;DHT22;9975;48.046;7.804;2023-03-18T04:39:34;11.20;41.90
19654;DHT22;9975;48.046;7.804;2023-03-18T04:42:00;11.10;43.00
19654;DHT22;9975;48.046;7.804;2023-03-18T04:44:26;11.10;41.90
19654;DHT22;9975;48.046;7.804;2023-03-18T04:46:52;11.10;42.50
19654;DHT22;9975;48.046;7.804;2023-03-18T04:49:20;10.90;42.00
19654;DHT22;9975;48.046;7.804;2023-03-18T04:51:46;11.00;42.70
19654;DHT22;9975;48.046;7.804;2023-03-18T04:54:12;11.00;42.70
19654;DHT22;9975;48.046;7.804;2023-03-18T04:56:38;11.00;42.00
19654;DHT22;9975;48.046;7.804;2023-03-18T04:59:04;11.10;42.10
19654;DHT22;9975;48.046;7.804;2023-03-18T05:01:30;11.00;42.60
19654;DHT22;9975;48.046;7.804;2023-03-18T05:04:00;11.00;42.90
19654;DHT22;9975;48.046;7.804;2023-03-18T05:06:28;11.00;42.90
19654;DHT22;9975;48.046;7.804;2023-03-18T05:08:54;11.00;42.20
19654;DHT22;9975;48.046;7.804;2023-03-18T05:11:21;10.90;42.10
19654;DHT22;9975;48.046;7.804;2023-03-18T05:13:47;11.00;42.70
19654;DHT22;9975;48.046;7.804;2023-03-18T05:16:13;10.90;42.60
19654;DHT22;9975;48.046;7.804;2023-03-18T05:18:40;10.90;42.40
19654;DHT22;9975;48.046;7.804;2023-03-18T05:21:07;10.90;42.20
19654;DHT22;9975;48.046;7.804;2023-03-18T05:23:33;10.90;42.70
19654;DHT22;9975;48.046;7.804;2023-03-18T05:25:59;10.90;42.20
19654;DHT22;9975;48.046;7.804;2023-03-18T05:28:25;10.90;42.70
19654;DHT22;9975;48.046;7.804;2023-03-18T05:30:51;10.80;43.20
19654;DHT22;9975;48.046;7.804;2023-03-18T05:33:17;10.70;43.30
19654;DHT22;9975;48.046;7.804;2023-03-18T05:35:44;10.60;43.80
19654;DHT22;9975;48.046;7.804;2023-03-18T05:38:10;10.60;43.80
19654;DHT22;9975;48.046;7.804;2023-03-18T05:40:37;10.50;44.00
19654;DHT22;9975;48.046;7.804;2023-03-18T05:43:03;10.50;45.20
19654;DHT22;9975;48.046;7.804;2023-03-18T05:45:28;10.40;44.60
19654;DHT22;9975;48.046;7.804;2023-03-18T05:47:54;10.40;44.60
19654;DHT22;9975;48.046;7.804;2023-03-18T05:50:30;10.30;44.20
19654;DHT22;9975;48.046;7.804;2023-03-18T05:52:57;10.20;44.40
19654;DHT22;9975;48.046;7.804;2023-03-18T05:55:22;10.30;44.40
19654;DHT22;9975;48.046;7.804;2023-03-18T05:57:48;10.30;44.90
19654;DHT22;9975;48.046;7.804;2023-03-18T06:00:14;10.20;44.20
19654;DHT22;9975;48.046;7.804;2023-03-18T06:02:43;10.20;44.70
19654;DHT22;9975;48.046;7.804;2023-03-18T06:05:09;10.20;43.90
19654;DHT22;9975;48.046;7.804;2023-03-18T06:07:35;10.20;44.40
19654;DHT22;9975;48.046;7.804;2023-03-18T06:10:01;10.30;44.30
19654;DHT22;9975;48.046;7.804;2023-03-18T06:12:27;10.30;43.50
19654;DHT22;9975;48.046;7.804;2023-03-18T06:14:53;10.30;43.40
19654;DHT22;9975;48.046;7.804;2023-03-18T06:17:20;10.30;43.90
19654;DHT22;9975;48.046;7.804;2023-03-18T06:19:45;10.20;43.20
19654;DHT22;9975;48.046;7.804;2023-03-18T06:22:12;10.30;43.80
19654;DHT22;9975;48.046;7.804;2023-03-18T06:24:39;10.40;43.10
19654;DHT22;9975;48.046;7.804;2023-03-18T06:27:05;10.40;43.10
19654;DHT22;9975;48.046;7.804;2023-03-18T06:29:32;10.40;42.90
19654;DHT22;9975;48.046;7.804;2023-03-18T06:31:58;10.60;44.20
19654;DHT22;9975;48.046;7.804;2023-03-18T06:36:49;10.50;42.50
19654;DHT22;9975;48.046;7.804;2023-03-18T06:39:17;10.80;42.30
19654;DHT22;9975;48.046;7.804;2023-03-18T06:41:43;10.80;41.80
19654;DHT22;9975;48.046;7.804;2023-03-18T06:44:09;11.00;41.70
19654;DHT22;9975;48.046;7.804;2023-03-18T06:46:35;11.00;41.70
19654;DHT22;9975;48.046;7.804;2023-03-18T06:49:02;11.00;42.30
19654;DHT22;9975;48.046;7.804;2023-03-18T06:51:27;11.10;41.40
19654;DHT22;9975;48.046;7.804;2023-03-18T06:53:54;11.10;42.60
19654;DHT22;9975;48.046;7.804;2023-03-18T06:56:21;11.20;41.50
19654;DHT22;9975;48.046;7.804;2023-03-18T06:58:48;11.10;42.00
19654;DHT22;9975;48.046;7.804;2023-03-18T07:01:13;11.20;41.90
19654;DHT22;9975;48.046;7.804;2023-03-18T07:03:39;11.20;42.50
19654;DHT22;9975;48.046;7.804;2023-03-18T07:06:05;11.30;42.10
19654;DHT22;9975;48.046;7.804;2023-03-18T07:08:32;11.30;42.50
19654;DHT22;9975;48.046;7.804;2023-03-18T07:10:58;11.40;42.00
19654;DHT22;9975;48.046;7.804;2023-03-18T07:13:24;11.60;40.80
19654;DHT22;9975;48.046;7.804;2023-03-18T07:15:49;11.60;41.30
19654;DHT22;9975;48.046;7.804;2023-03-18T07:18:15;11.60;41.90
19654;DHT22;9975;48.046;7.804;2023-03-18T07:20:41;11.60;41.50
19654;DHT22;9975;48.046;7.804;2023-03-18T07:23:07;11.70;41.50
19654;DHT22;9975;48.046;7.804;2023-03-18T07:25:34;11.80;41.60
19654;DHT22;9975;48.046;7.804;2023-03-18T07:28:00;11.80;41.00
19654;DHT22;9975;48.046;7.804;2023-03-18T07:30:27;12.00;40.40
19654;DHT22;9975;48.046;7.804;2023-03-18T07:32:53;12.10;39.90
19654;DHT22;9975;48.046;7.804;2023-03-18T07:35:19;12.20;39.30
19654;DHT22;9975;48.046;7.804;2023-03-18T07:37:46;12.30;39.20
19654;DHT22;9975;48.046;7.804;2023-03-18T07:40:13;12.70;39.20
19654;DHT22;9975;48.046;7.804;2023-03-18T07:42:39;12.60;39.50
19654;DHT22;9975;48.046;7.804;2023-03-18T07:45:05;12.60;37.30
19654;DHT22;9975;48.046;7.804;2023-03-18T07:47:32;12.60;38.00
19654;DHT22;9975;48.046;7.804;2023-03-18T07:49:57;12.70;37.30
19654;DHT22;9975;48.046;7.804;2023-03-18T07:52:23;12.80;37.00
19654;DHT22;9975;48.046;7.804;2023-03-18T07:54:49;12.80;36.80
19654;DHT22;9975;48.046;7.804;2023-03-18T07:57:15;12.90;37.20
19654;DHT22;9975;48.046;7.804;2023-03-18T07:59:41;13.00;37.20
19654;DHT22;9975;48.046;7.804;2023-03-18T08:02:09;13.20;37.30
19654;DHT22;9975;48.046;7.804;2023-03-18T08:04:35;13.30;36.90
19654;DHT22;9975;48.046;7.804;2023-03-18T08:07:02;13.40;36.50
19654;DHT22;9975;48.046;7.804;2023-03-18T08:09:27;13.50;36.40
19654;DHT22;9975;48.046;7.804;2023-03-18T08:11:53;14.00;35.40
19654;DHT22;9975;48.046;7.804;2023-03-18T08:14:19;14.00;35.90
19654;DHT22;9975;48.046;7.804;2023-03-18T08:16:44;14.50;34.70
19654;DHT22;9975;48.046;7.804;2023-03-18T08:19:10;14.60;34.30
19654;DHT22;9975;48.046;7.804;2023-03-18T08:21:36;14.60;34.80
19654;DHT22;9975;48.046;7.804;2023-03-18T08:24:02;14.70;33.30
19654;DHT22;9975;48.046;7.804;2023-03-18T08:26:28;14.80;33.00
19654;DHT22;9975;48.046;7.804;2023-03-18T08:28:54;14.90;33.00
19654;DHT22;9975;48.046;7.804;2023-03-18T08:31:19;15.10;32.80
19654;DHT22;9975;48.046;7.804;2023-03-18T08:33:45;15.10;33.40
19654;DHT22;9975;48.046;7.804;2023-03-18T08:36:12;14.90;32.50
19654;DHT22;9975;48.046;7.804;2023-03-18T08:38:38;14.90;33.00
19654;DHT22;9975;48.046;7.804;2023-03-18T08:41:04;14.80;32.10
19654;DHT22;9975;48.046;7.804;2023-03-18T08:43:31;14.70;31.80
19654;DHT22;9975;48.046;7.804;2023-03-18T08:45:56;14.80;32.30
19654;DHT22;9975;48.046;7.804;2023-03-18T08:48:23;14.80;32.50
19654;DHT22;9975;48.046;7.804;2023-03-18T08:50:50;14.90;33.30
19654;DHT22;9975;48.046;7.804;2023-03-18T08:53:17;15.10;33.20
19654;DHT22;9975;48.046;7.804;2023-03-18T08:55:42;15.20;32.60
19654;DHT22;9975;48.046;7.804;2023-03-18T08:58:09;15.60;31.40
19654;DHT22;9975;48.046;7.804;2023-03-18T09:00:36;15.60;32.50
19654;DHT22;9975;48.046;7.804;2023-03-18T09:03:02;15.60;31.10
19654;DHT22;9975;48.046;7.804;2023-03-18T09:05:28;15.50;31.20
19654;DHT22;9975;48.046;7.804;2023-03-18T09:07:55;15.60;31.70
19654;DHT22;9975;48.046;7.804;2023-03-18T09:10:21;15.80;32.00
19654;DHT22;9975;48.046;7.804;2023-03-18T09:12:47;16.00;30.80
19654;DHT22;9975;48.046;7.804;2023-03-18T09:15:14;16.00;31.30
19654;DHT22;9975;48.046;7.804;2023-03-18T09:17:41;16.10;30.00
19654;DHT22;9975;48.046;7.804;2023-03-18T09:20:11;16.20;30.70
19654;DHT22;9975;48.046;7.804;2023-03-18T09:22:39;16.40;31.10
19654;DHT22;9975;48.046;7.804;2023-03-18T09:25:06;16.30;30.80
19654;DHT22;9975;48.046;7.804;2023-03-18T09:27:32;16.40;31.00
19654;DHT22;9975;48.046;7.804;2023-03-18T09:29:57;16.70;30.90
19654;DHT22;9975;48.046;7.804;2023-03-18T09:32:23;17.10;30.10
19654;DHT22;9975;48.046;7.804;2023-03-18T09:34:49;17.00;30.60
19654;DHT22;9975;48.046;7.804;2023-03-18T09:37:16;16.80;28.60
19654;DHT22;9975;48.046;7.804;2023-03-18T09:39:43;16.50;27.50
19654;DHT22;9975;48.046;7.804;2023-03-18T09:44:40;16.60;28.00
19654;DHT22;9975;48.046;7.804;2023-03-18T09:50:38;17.00;28.00
19654;DHT22;9975;48.046;7.804;2023-03-18T09:55:51;17.70;28.70
19654;DHT22;9975;48.046;7.804;2023-03-18T09:58:48;17.70;27.80
19654;DHT22;9975;48.046;7.804;2023-03-18T10:01:17;17.00;26.90
19654;DHT22;9975;48.046;7.804;2023-03-18T10:03:49;17.10;27.40
19654;DHT22;9975;48.046;7.804;2023-03-18T10:06:21;17.00;27.90
19654;DHT22;9975;48.046;7.804;2023-03-18T10:12:02;17.10;27.80
19654;DHT22;9975;48.046;7.804;2023-03-18T10:14:39;17.20;27.00
19654;DHT22;9975;48.046;7.804;2023-03-18T10:17:40;17.10;26.90
19654;DHT22;9975;48.046;7.804;2023-03-18T10:25:52;18.00;26.90
19654;DHT22;9975;48.046;7.804;2023-03-18T10:38:47;18.50;26.80
19654;DHT22;9975;48.046;7.804;2023-03-18T10:41:20;18.70;26.10
19654;DHT22;9975;48.046;7.804;2023-03-18T10:43:49;18.60;26.40
19654;DHT22;9975;48.046;7.804;2023-03-18T10:46:19;18.80;26.80
19654;DHT22;9975;48.046;7.804;2023-03-18T10:49:04;18.90;25.70
19654;DHT22;9975;48.046;7.804;2023-03-18T10:54:41;18.80;25.30
19654;DHT22;9975;48.046;7.804;2023-03-18T10:57:20;19.10;26.10
19654;DHT22;9975;48.046;7.804;2023-03-18T10:59:46;19.20;26.50
19654;DHT22;9975;48.046;7.804;2023-03-18T11:04:58;19.10;25.70
19654;DHT22;9975;48.046;7.804;2023-03-18T11:07:28;19.20;26.30
19654;DHT22;9975;48.046;7.804;2023-03-18T11:10:13;19.70;26.30
19654;DHT22;9975;48.046;7.804;2023-03-18T11:12:39;19.90;26.20
19654;DHT22;9975;48.046;7.804;2023-03-18T11:15:10;19.80;26.20
19654;DHT22;9975;48.046;7.804;2023-03-18T11:17:37;20.60;25.40
19654;DHT22;9975;48.046;7.804;2023-03-18T11:20:19;20.50;23.90
19654;DHT22;9975;48.046;7.804;2023-03-18T11:22:51;19.90;24.60
19654;DHT22;9975;48.046;7.804;2023-03-18T11:25:18;19.80;24.90
19654;DHT22;9975;48.046;7.804;2023-03-18T11:27:48;19.40;25.40
19654;DHT22;9975;48.046;7.804;2023-03-18T11:30:22;19.20;26.40
19654;DHT22;9975;48.046;7.804;2023-03-18T11:32:53;19.20;26.70
19654;DHT22;9975;48.046;7.804;2023-03-18T11:35:24;19.60;27.10
19654;DHT22;9975;48.046;7.804;2023-03-18T11:37:55;19.40;25.60
19654;DHT22;9975;48.046;7.804;2023-03-18T11:40:25;19.80;25.90
19654;DHT22;9975;48.046;7.804;2023-03-18T11:42:57;20.30;25.30
19654;DHT22;9975;48.046;7.804;2023-03-18T11:45:41;20.40;25.80
19654;DHT22;9975;48.046;7.804;2023-03-18T11:48:16;20.80;24.00
19654;DHT22;9975;48.046;7.804;2023-03-18T11:51:03;20.80;24.40
19654;DHT22;9975;48.046;7.804;2023-03-18T11:59:29;21.60;23.80
19654;DHT22;9975;48.046;7.804;2023-03-18T12:10:39;22.20;22.20
19654;DHT22;9975;48.046;7.804;2023-03-18T12:12:48;22.20;22.50
19654;DHT22;9975;48.046;7.804;2023-03-18T12:20:36;21.70;22.10
19654;DHT22;9975;48.046;7.804;2023-03-18T12:34:02;21.30;23.70
19654;DHT22;9975;48.046;7.804;2023-03-18T12:42:10;21.70;23.00
19654;DHT22;9975;48.046;7.804;2023-03-18T12:47:29;21.30;23.10
19654;DHT22;9975;48.046;7.804;2023-03-18T12:55:42;21.10;23.90
19654;DHT22;9975;48.046;7.804;2023-03-18T12:58:17;21.00;23.40
19654;DHT22;9975;48.046;7.804;2023-03-18T13:01:06;20.50;24.00
19654;DHT22;9975;48.046;7.804;2023-03-18T13:04:00;19.90;24.00
19654;DHT22;9975;48.046;7.804;2023-03-18T13:06:38;19.80;24.60
19654;DHT22;9975;48.046;7.804;2023-03-18T13:09:50;19.80;25.30
19654;DHT22;9975;48.046;7.804;2023-03-18T13:17:43;19.90;25.40
19654;DHT22;9975;48.046;7.804;2023-03-18T13:20:20;19.90;25.40
19654;DHT22;9975;48.046;7.804;2023-03-18T13:26:28;19.80;25.90
19654;DHT22;9975;48.046;7.804;2023-03-18T13:42:45;19.50;25.70
19654;DHT22;9975;48.046;7.804;2023-03-18T13:45:21;19.50;25.40
19654;DHT22;9975;48.046;7.804;2023-03-18T13:48:00;19.60;25.30
19654;DHT22;9975;48.046;7.804;2023-03-18T13:50:37;19.70;25.10
19654;DHT22;9975;48.046;7.804;2023-03-18T13:53:05;19.60;25.40
19654;DHT22;9975;48.046;7.804;2023-03-18T13:55:41;19.70;25.80
19654;DHT22;9975;48.046;7.804;2023-03-18T14:01:10;19.50;26.60
19654;DHT22;9975;48.046;7.804;2023-03-18T14:08:47;19.50;26.10
19654;DHT22;9975;48.046;7.804;2023-03-18T14:13:52;19.20;26.50
19654;DHT22;9975;48.046;7.804;2023-03-18T14:21:52;19.30;26.40
19654;DHT22;9975;48.046;7.804;2023-03-18T14:24:22;19.50;25.50
19654;DHT22;9975;48.046;7.804;2023-03-18T14:29:23;19.70;25.20
19654;DHT22;9975;48.046;7.804;2023-03-18T14:31:54;19.70;25.70
19654;DHT22;9975;48.046;7.804;2023-03-18T14:34:30;19.60;25.50
19654;DHT22;9975;48.046;7.804;2023-03-18T14:39:32;19.60;25.50
19654;DHT22;9975;48.046;7.804;2023-03-18T14:42:02;19.60;25.80
19654;DHT22;9975;48.046;7.804;2023-03-18T14:44:45;19.50;25.50
19654;DHT22;9975;48.046;7.804;2023-03-18T14:50:06;20.00;25.70
19654;DHT22;9975;48.046;7.804;2023-03-18T14:52:40;20.20;24.30
19654;DHT22;9975;48.046;7.804;2023-03-18T14:55:20;20.20;24.90
19654;DHT22;9975;48.046;7.804;2023-03-18T14:57:46;20.30;24.40
19654;DHT22;9975;48.046;7.804;2023-03-18T15:00:17;20.20;24.40
19654;DHT22;9975;48.046;7.804;2023-03-18T15:02:44;20.20;25.00
19654;DHT22;9975;48.046;7.804;2023-03-18T15:05:15;20.60;24.20
19654;DHT22;9975;48.046;7.804;2023-03-18T15:07:41;20.60;24.60
19654;DHT22;9975;48.046;7.804;2023-03-18T15:10:20;20.70;24.20
19654;DHT22;9975;48.046;7.804;2023-03-18T15:13:17;20.80;24.30
19654;DHT22;9975;48.046;7.804;2023-03-18T15:15:43;21.30;23.90
19654;DHT22;9975;48.046;7.804;2023-03-18T15:20:44;21.70;23.70
19654;DHT22;9975;48.046;7.804;2023-03-18T15:23:12;21.50;22.10
19654;DHT22;9975;48.046;7.804;2023-03-18T15:25:42;21.50;21.40
19654;DHT22;9975;48.046;7.804;2023-03-18T15:28:18;21.50;22.20
19654;DHT22;9975;48.046;7.804;2023-03-18T15:30:53;21.40;22.30
19654;DHT22;9975;48.046;7.804;2023-03-18T15:33:23;21.30;22.30
19654;DHT22;9975;48.046;7.804;2023-03-18T15:35:59;21.40;22.80
19654;DHT22;9975;48.046;7.804;2023-03-18T15:38:29;21.50;22.40
19654;DHT22;9975;48.046;7.804;2023-03-18T15:41:01;21.80;22.60
19654;DHT22;9975;48.046;7.804;2023-03-18T15:43:39;21.60;22.20
19654;DHT22;9975;48.046;7.804;2023-03-18T15:46:27;21.70;21.50
19654;DHT22;9975;48.046;7.804;2023-03-18T15:48:56;21.50;21.70
19654;DHT22;9975;48.046;7.804;2023-03-18T15:51:29;21.90;22.20
19654;DHT22;9975;48.046;7.804;2023-03-18T15:54:02;21.10;21.00
19654;DHT22;9975;48.046;7.804;2023-03-18T15:56:31;21.20;21.40
19654;DHT22;9975;48.046;7.804;2023-03-18T15:59:12;21.00;21.00
19654;DHT22;9975;48.046;7.804;2023-03-18T16:01:40;20.60;21.60
19654;DHT22;9975;48.046;7.804;2023-03-18T16:04:13;20.70;22.10
19654;DHT22;9975;48.046;7.804;2023-03-18T16:06:39;20.80;22.00
19654;DHT22;9975;48.046;7.804;2023-03-18T16:09:23;20.10;20.90
19654;DHT22;9975;48.046;7.804;2023-03-18T16:11:57;20.20;21.40
19654;DHT22;9975;48.046;7.804;2023-03-18T16:14:29;19.90;22.00
19654;DHT22;9975;48.046;7.804;2023-03-18T16:16:57;20.10;22.10
19654;DHT22;9975;48.046;7.804;2023-03-18T16:19:25;20.20;22.20
19654;DHT22;9975;48.046;7.804;2023-03-18T16:21:53;20.40;22.90
19654;DHT22;9975;48.046;7.804;2023-03-18T16:24:21;20.50;22.20
19654;DHT22;9975;48.046;7.804;2023-03-18T16:26:47;20.30;22.40
19654;DHT22;9975;48.046;7.804;2023-03-18T16:29:18;20.30;22.80
19654;DHT22;9975;48.046;7.804;2023-03-18T16:31:45;20.10;23.10
19654;DHT22;9975;48.046;7.804;2023-03-18T16:34:15;19.90;23.20
19654;DHT22;9975;48.046;7.804;2023-03-18T16:36:41;19.90;23.70
19654;DHT22;9975;48.046;7.804;2023-03-18T16:39:19;19.60;23.00
19654;DHT22;9975;48.046;7.804;2023-03-18T16:41:45;19.70;23.60
19654;DHT22;9975;48.046;7.804;2023-03-18T16:44:19;19.40;23.70
19654;DHT22;9975;48.046;7.804;2023-03-18T16:46:48;19.50;24.20
19654;DHT22;9975;48.046;7.804;2023-03-18T16:49:30;19.50;24.10
19654;DHT22;9975;48.046;7.804;2023-03-18T16:51:57;19.50;24.60
19654;DHT22;9975;48.046;7.804;2023-03-18T16:54:25;19.20;24.00
19654;DHT22;9975;48.046;7.804;2023-03-18T16:56:57;19.10;24.10
19654;DHT22;9975;48.046;7.804;2023-03-18T16:59:25;19.10;24.60
19654;DHT22;9975;48.046;7.804;2023-03-18T17:01:53;19.00;24.90
19654;DHT22;9975;48.046;7.804;2023-03-18T17:04:34;19.00;24.80
19654;DHT22;9975;48.046;7.804;2023-03-18T17:07:02;18.90;25.00
19654;DHT22;9975;48.046;7.804;2023-03-18T17:09:29;18.80;24.60
19654;DHT22;9975;48.046;7.804;2023-03-18T17:11:59;18.80;24.90
19654;DHT22;9975;48.046;7.804;2023-03-18T17:14:37;18.60;25.00
19654;DHT22;9975;48.046;7.804;2023-03-18T17:17:50;18.60;25.50
19654;DHT22;9975;48.046;7.804;2023-03-18T17:19:53;18.60;25.40
19654;DHT22;9975;48.046;7.804;2023-03-18T17:22:28;18.50;25.40
19654;DHT22;9975;48.046;7.804;2023-03-18T17:24:55;18.40;26.00
19654;DHT22;9975;48.046;7.804;2023-03-18T17:27:32;18.50;26.00
19654;DHT22;9975;48.046;7.804;2023-03-18T17:30:00;18.30;25.70
19654;DHT22;9975;48.046;7.804;2023-03-18T17:32:25;18.20;25.90
19654;DHT22;9975;48.046;7.804;2023-03-18T17:34:52;18.30;27.00
19654;DHT22;9975;48.046;7.804;2023-03-18T17:37:19;18.20;26.80
19654;DHT22;9975;48.046;7.804;2023-03-18T17:39:45;18.10;27.70
19654;DHT22;9975;48.046;7.804;2023-03-18T17:42:29;18.00;27.90
19654;DHT22;9975;48.046;7.804;2023-03-18T17:45:04;17.80;28.20
19654;DHT22;9975;48.046;7.804;2023-03-18T17:47:31;17.80;29.00
19654;DHT22;9975;48.046;7.804;2023-03-18T17:49:57;17.80;29.40
19654;DHT22;9975;48.046;7.804;2023-03-18T17:52:23;17.80;28.10
19654;DHT22;9975;48.046;7.804;2023-03-18T17:54:49;17.80;27.80
19654;DHT22;9975;48.046;7.804;2023-03-18T17:57:16;17.80;29.20
19654;DHT22;9975;48.046;7.804;2023-03-18T17:59:42;17.60;29.00
19654;DHT22;9975;48.046;7.804;2023-03-18T18:02:15;17.50;29.40
19654;DHT22;9975;48.046;7.804;2023-03-18T18:04:43;17.40;29.80
19654;DHT22;9975;48.046;7.804;2023-03-18T18:07:20;17.20;30.00
19654;DHT22;9975;48.046;7.804;2023-03-18T18:09:46;17.20;30.70
19654;DHT22;9975;48.046;7.804;2023-03-18T18:12:20;17.10;31.00
19654;DHT22;9975;48.046;7.804;2023-03-18T18:14:48;17.10;30.80
19654;DHT22;9975;48.046;7.804;2023-03-18T18:17:14;17.00;31.90
19654;DHT22;9975;48.046;7.804;2023-03-18T18:19:42;17.00;30.70
19654;DHT22;9975;48.046;7.804;2023-03-18T18:22:18;17.00;31.30
19654;DHT22;9975;48.046;7.804;2023-03-18T18:24:45;16.80;31.10
19654;DHT22;9975;48.046;7.804;2023-03-18T18:27:12;16.70;32.50
19654;DHT22;9975;48.046;7.804;2023-03-18T18:29:39;16.60;31.00
19654;DHT22;9975;48.046;7.804;2023-03-18T18:32:06;16.50;31.50
19654;DHT22;9975;48.046;7.804;2023-03-18T18:34:31;16.50;31.60
19654;DHT22;9975;48.046;7.804;2023-03-18T18:36:57;16.30;31.50
19654;DHT22;9975;48.046;7.804;2023-03-18T18:39:23;16.30;31.90
19654;DHT22;9975;48.046;7.804;2023-03-18T18:41:49;16.30;32.80
19654;DHT22;9975;48.046;7.804;2023-03-18T18:44:15;16.30;32.40
19654;DHT22;9975;48.046;7.804;2023-03-18T18:46:41;16.30;32.70
19654;DHT22;9975;48.046;7.804;2023-03-18T18:49:18;16.30;33.10
19654;DHT22;9975;48.046;7.804;2023-03-18T18:51:49;16.20;33.80
19654;DHT22;9975;48.046;7.804;2023-03-18T18:54:17;16.10;34.10
19654;DHT22;9975;48.046;7.804;2023-03-18T18:56:44;16.10;34.50
19654;DHT22;9975;48.046;7.804;2023-03-18T18:59:26;16.10;35.00
19654;DHT22;9975;48.046;7.804;2023-03-18T19:01:55;16.20;35.90
19654;DHT22;9975;48.046;7.804;2023-03-18T19:04:20;16.10;37.40
19654;DHT22;9975;48.046;7.804;2023-03-18T19:06:46;15.80;36.80
19654;DHT22;9975;48.046;7.804;2023-03-18T19:09:19;15.70;36.70
19654;DHT22;9975;48.046;7.804;2023-03-18T19:11:46;15.60;37.00
19654;DHT22;9975;48.046;7.804;2023-03-18T19:16:43;15.60;37.60
19654;DHT22;9975;48.046;7.804;2023-03-18T19:19:20;15.50;38.40
19654;DHT22;9975;48.046;7.804;2023-03-18T19:21:48;15.40;38.90
19654;DHT22;9975;48.046;7.804;2023-03-18T19:26:57;15.30;39.00
19654;DHT22;9975;48.046;7.804;2023-03-18T19:29:24;15.20;38.20
19654;DHT22;9975;48.046;7.804;2023-03-18T19:31:50;15.30;38.70
19654;DHT22;9975;48.046;7.804;2023-03-18T19:34:17;15.30;36.50
19654;DHT22;9975;48.046;7.804;2023-03-18T19:36:48;15.30;37.50
19654;DHT22;9975;48.046;7.804;2023-03-18T19:39:18;15.30;37.90
19654;DHT22;9975;48.046;7.804;2023-03-18T19:41:45;15.20;37.60
19654;DHT22;9975;48.046;7.804;2023-03-18T19:44:20;15.10;38.90
19654;DHT22;9975;48.046;7.804;2023-03-18T19:46:47;15.00;38.60
19654;DHT22;9975;48.046;7.804;2023-03-18T19:49:31;15.00;38.80
19654;DHT22;9975;48.046;7.804;2023-03-18T19:52:05;14.90;39.30
19654;DHT22;9975;48.046;7.804;2023-03-18T19:54:35;14.70;39.50
19654;DHT22;9975;48.046;7.804;2023-03-18T19:59:38;14.70;40.00
19654;DHT22;9975;48.046;7.804;2023-03-18T20:04:46;14.60;39.50
19654;DHT22;9975;48.046;7.804;2023-03-18T20:07:14;14.60;39.40
19654;DHT22;9975;48.046;7.804;2023-03-18T20:09:40;14.60;39.90
19654;DHT22;9975;48.046;7.804;2023-03-18T20:15:22;14.50;42.00
19654;DHT22;9975;48.046;7.804;2023-03-18T20:17:53;14.30;42.60
19654;DHT22;9975;48.046;7.804;2023-03-18T20:27:43;14.10;43.60
19654;DHT22;9975;48.046;7.804;2023-03-18T20:30:30;14.00;44.00
19654;DHT22;9975;48.046;7.804;2023-03-18T20:32:57;14.00;44.50